Kezdőlap
METAR-TAF:

METAR-TAF

Repülőterek :

Phillip Goldston

Belize City, Belize

földrajzi szélesség: 17-32N, földrajzi hosszúság: 088-18W, magasság: 5 m

Jelenlegi meteorológiai megfigyelések

A jelentés 6 órával és 54 perccel ezelõtt készült, 01:00 UTC
Keleti szél 6 kt
Hőmérséklet 28°C
Páratartalom 84%
Légköri nyomás 1014 hPa
Látótávolság 10 km, vagy több
Kevés felhő 2100 lábon

METAR: MZBZ 230100Z 09006KT 9999 FEW021 28/25 A2995 Q1014 NOSIG

Idő: 01:54 (07:54 UTC)

Előrejelzés

A jelentés 4 órával és 54 perccel ezelõtt készült, 03:00 UTC
Az előrejelzés 23-én 06 óra UTC és 24-én 06 óra UTC között érvényes
Keleti szél 7 kt
Látótávolság 10 km, vagy több
Kevés felhő 2400 lábon

TAF: MZBZ 230300Z 2306/2406 10007KT 9999 FEW024

Meteorológiai megfigyelések és előrejelzések több, mint 4000 repülőtéren (METAR és TAF jelentéseket).

A térképen piros és sárga pontok jelzik az elérhető meteorológiai állomásokat.

Mozgassa az egeret a pont fölött, hogy megjelenjen az állomás neve.

Azután kattintson az időjárási megfigyelések és előrejelzések megtekintéséhez.

A térkép megváltoztatása: kattintson a fekete keresztel jelölt zöld gombra ráközelítéshez, a vonallal jelölt zöld gombra távolításhoz, vagy a zöld nyilakra a szomszédos térképek eléréséhez.


METAR-TAF: